sensor_id;sensor_type;location;lat;lon;timestamp;P1;durP1;ratioP1;P2;durP2;ratioP2
20743;SDS011;56303;52.160;-0.428;2023-01-01T00:00:00;6.57;;;2.53;;
20743;SDS011;56303;52.160;-0.428;2023-01-01T00:02:27;10.30;;;5.97;;
20743;SDS011;56303;52.160;-0.428;2023-01-01T00:05:02;14.27;;;9.07;;
20743;SDS011;56303;52.160;-0.428;2023-01-01T00:07:29;12.87;;;10.13;;
20743;SDS011;56303;52.160;-0.428;2023-01-01T00:09:56;22.30;;;19.90;;
20743;SDS011;56303;52.160;-0.428;2023-01-01T00:12:43;34.70;;;29.13;;
20743;SDS011;56303;52.160;-0.428;2023-01-01T00:15:10;38.07;;;33.93;;
20743;SDS011;56303;52.160;-0.428;2023-01-01T00:17:37;26.27;;;23.47;;
20743;SDS011;56303;52.160;-0.428;2023-01-01T00:20:03;17.23;;;12.00;;
20743;SDS011;56303;52.160;-0.428;2023-01-01T00:22:31;17.13;;;10.90;;
20743;SDS011;56303;52.160;-0.428;2023-01-01T00:25:17;15.03;;;9.30;;
20743;SDS011;56303;52.160;-0.428;2023-01-01T00:27:45;8.80;;;5.03;;
20743;SDS011;56303;52.160;-0.428;2023-01-01T00:30:12;9.70;;;3.97;;
20743;SDS011;56303;52.160;-0.428;2023-01-01T00:32:39;13.17;;;4.73;;
20743;SDS011;56303;52.160;-0.428;2023-01-01T00:35:06;6.00;;;2.97;;
20743;SDS011;56303;52.160;-0.428;2023-01-01T00:37:35;4.60;;;2.07;;
20743;SDS011;56303;52.160;-0.428;2023-01-01T00:40:08;6.53;;;2.07;;
20743;SDS011;56303;52.160;-0.428;2023-01-01T00:42:35;3.83;;;2.17;;
20743;SDS011;56303;52.160;-0.428;2023-01-01T00:45:06;7.60;;;1.83;;
20743;SDS011;56303;52.160;-0.428;2023-01-01T00:47:36;5.67;;;2.00;;
20743;SDS011;56303;52.160;-0.428;2023-01-01T00:50:03;7.10;;;1.93;;
20743;SDS011;56303;52.160;-0.428;2023-01-01T00:52:30;5.40;;;1.90;;
20743;SDS011;56303;52.160;-0.428;2023-01-01T00:54:58;8.90;;;3.30;;
20743;SDS011;56303;52.160;-0.428;2023-01-01T00:57:26;7.73;;;3.20;;
20743;SDS011;56303;52.160;-0.428;2023-01-01T00:59:53;6.40;;;2.13;;
20743;SDS011;56303;52.160;-0.428;2023-01-01T01:02:21;4.77;;;2.40;;
20743;SDS011;56303;52.160;-0.428;2023-01-01T01:04:48;5.57;;;2.63;;
20743;SDS011;56303;52.160;-0.428;2023-01-01T01:07:15;4.47;;;3.07;;
20743;SDS011;56303;52.160;-0.428;2023-01-01T01:09:42;8.43;;;3.00;;
20743;SDS011;56303;52.160;-0.428;2023-01-01T01:12:09;4.80;;;2.80;;
20743;SDS011;56303;52.160;-0.428;2023-01-01T01:14:44;7.50;;;2.70;;
20743;SDS011;56303;52.160;-0.428;2023-01-01T01:17:12;6.63;;;2.77;;
20743;SDS011;56303;52.160;-0.428;2023-01-01T01:19:39;7.30;;;2.83;;
20743;SDS011;56303;52.160;-0.428;2023-01-01T01:22:06;6.57;;;2.60;;
20743;SDS011;56303;52.160;-0.428;2023-01-01T01:24:33;4.03;;;2.17;;
20743;SDS011;56303;52.160;-0.428;2023-01-01T01:27:00;6.97;;;2.30;;
20743;SDS011;56303;52.160;-0.428;2023-01-01T01:29:27;5.43;;;1.87;;
20743;SDS011;56303;52.160;-0.428;2023-01-01T01:31:54;4.43;;;1.73;;
20743;SDS011;56303;52.160;-0.428;2023-01-01T01:34:21;9.00;;;1.77;;
20743;SDS011;56303;52.160;-0.428;2023-01-01T01:36:53;5.17;;;2.10;;
20743;SDS011;56303;52.160;-0.428;2023-01-01T01:39:21;5.77;;;2.00;;
20743;SDS011;56303;52.160;-0.428;2023-01-01T01:41:48;4.60;;;1.33;;
20743;SDS011;56303;52.160;-0.428;2023-01-01T01:47:14;6.73;;;2.13;;
20743;SDS011;56303;52.160;-0.428;2023-01-01T01:49:47;4.77;;;1.73;;
20743;SDS011;56303;52.160;-0.428;2023-01-01T01:52:27;5.17;;;1.83;;
20743;SDS011;56303;52.160;-0.428;2023-01-01T01:54:55;8.77;;;2.43;;
20743;SDS011;56303;52.160;-0.428;2023-01-01T01:57:23;5.63;;;1.93;;
20743;SDS011;56303;52.160;-0.428;2023-01-01T01:59:51;5.30;;;2.20;;
20743;SDS011;56303;52.160;-0.428;2023-01-01T02:02:25;3.27;;;1.50;;
20743;SDS011;56303;52.160;-0.428;2023-01-01T02:04:53;5.97;;;2.00;;
20743;SDS011;56303;52.160;-0.428;2023-01-01T02:07:20;5.57;;;2.03;;
20743;SDS011;56303;52.160;-0.428;2023-01-01T02:09:49;10.20;;;2.20;;
20743;SDS011;56303;52.160;-0.428;2023-01-01T02:12:16;7.17;;;1.87;;
20743;SDS011;56303;52.160;-0.428;2023-01-01T02:14:43;6.73;;;1.60;;
20743;SDS011;56303;52.160;-0.428;2023-01-01T02:17:13;7.10;;;2.20;;
20743;SDS011;56303;52.160;-0.428;2023-01-01T02:19:54;6.27;;;1.97;;
20743;SDS011;56303;52.160;-0.428;2023-01-01T02:22:56;6.90;;;2.37;;
20743;SDS011;56303;52.160;-0.428;2023-01-01T02:31:31;6.40;;;2.00;;
20743;SDS011;56303;52.160;-0.428;2023-01-01T02:34:06;6.67;;;2.10;;
20743;SDS011;56303;52.160;-0.428;2023-01-01T02:36:38;9.13;;;2.27;;
20743;SDS011;56303;52.160;-0.428;2023-01-01T02:39:16;8.37;;;2.57;;
20743;SDS011;56303;52.160;-0.428;2023-01-01T02:41:47;8.03;;;2.30;;
20743;SDS011;56303;52.160;-0.428;2023-01-01T02:44:18;7.10;;;2.07;;
20743;SDS011;56303;52.160;-0.428;2023-01-01T02:46:46;8.60;;;2.37;;
20743;SDS011;56303;52.160;-0.428;2023-01-01T02:49:13;10.77;;;2.37;;
20743;SDS011;56303;52.160;-0.428;2023-01-01T02:54:41;11.27;;;3.27;;
20743;SDS011;56303;52.160;-0.428;2023-01-01T03:02:51;8.37;;;2.63;;
20743;SDS011;56303;52.160;-0.428;2023-01-01T03:11:16;10.80;;;2.57;;
20743;SDS011;56303;52.160;-0.428;2023-01-01T03:16:33;10.57;;;2.57;;
20743;SDS011;56303;52.160;-0.428;2023-01-01T03:24:34;9.17;;;2.80;;
20743;SDS011;56303;52.160;-0.428;2023-01-01T03:27:14;9.60;;;3.00;;
20743;SDS011;56303;52.160;-0.428;2023-01-01T03:29:47;14.33;;;3.20;;
20743;SDS011;56303;52.160;-0.428;2023-01-01T03:32:21;9.87;;;2.40;;
20743;SDS011;56303;52.160;-0.428;2023-01-01T03:35:13;9.90;;;3.07;;
20743;SDS011;56303;52.160;-0.428;2023-01-01T03:37:42;10.23;;;2.60;;
20743;SDS011;56303;52.160;-0.428;2023-01-01T03:40:13;9.37;;;3.43;;
20743;SDS011;56303;52.160;-0.428;2023-01-01T03:42:43;11.00;;;3.37;;
20743;SDS011;56303;52.160;-0.428;2023-01-01T03:47:50;11.70;;;3.07;;
20743;SDS011;56303;52.160;-0.428;2023-01-01T03:50:17;9.33;;;3.80;;
20743;SDS011;56303;52.160;-0.428;2023-01-01T03:52:51;11.93;;;2.93;;
20743;SDS011;56303;52.160;-0.428;2023-01-01T03:55:32;8.87;;;2.87;;
20743;SDS011;56303;52.160;-0.428;2023-01-01T04:01:01;11.07;;;2.80;;
20743;SDS011;56303;52.160;-0.428;2023-01-01T04:03:33;14.13;;;3.13;;
20743;SDS011;56303;52.160;-0.428;2023-01-01T04:06:02;14.70;;;3.47;;
20743;SDS011;56303;52.160;-0.428;2023-01-01T04:08:31;13.80;;;3.13;;
20743;SDS011;56303;52.160;-0.428;2023-01-01T04:10:59;10.37;;;3.40;;
20743;SDS011;56303;52.160;-0.428;2023-01-01T04:13:49;13.30;;;4.70;;
20743;SDS011;56303;52.160;-0.428;2023-01-01T04:16:16;13.00;;;3.17;;
20743;SDS011;56303;52.160;-0.428;2023-01-01T04:18:43;15.30;;;3.60;;
20743;SDS011;56303;52.160;-0.428;2023-01-01T04:21:10;13.00;;;3.93;;
20743;SDS011;56303;52.160;-0.428;2023-01-01T04:23:40;15.47;;;3.77;;
20743;SDS011;56303;52.160;-0.428;2023-01-01T04:26:13;16.73;;;4.33;;
20743;SDS011;56303;52.160;-0.428;2023-01-01T04:28:41;12.00;;;3.50;;
20743;SDS011;56303;52.160;-0.428;2023-01-01T04:31:08;10.50;;;3.53;;
20743;SDS011;56303;52.160;-0.428;2023-01-01T04:33:36;9.50;;;3.87;;
20743;SDS011;56303;52.160;-0.428;2023-01-01T04:36:04;13.07;;;3.30;;
20743;SDS011;56303;52.160;-0.428;2023-01-01T04:38:32;9.43;;;2.60;;
20743;SDS011;56303;52.160;-0.428;2023-01-01T04:41:00;12.17;;;3.07;;
20743;SDS011;56303;52.160;-0.428;2023-01-01T04:43:27;11.33;;;2.90;;
20743;SDS011;56303;52.160;-0.428;2023-01-01T04:45:58;9.50;;;3.60;;
20743;SDS011;56303;52.160;-0.428;2023-01-01T04:48:27;10.97;;;4.20;;
20743;SDS011;56303;52.160;-0.428;2023-01-01T04:50:55;17.60;;;4.60;;
20743;SDS011;56303;52.160;-0.428;2023-01-01T04:53:23;16.00;;;3.30;;
20743;SDS011;56303;52.160;-0.428;2023-01-01T04:55:50;17.63;;;3.70;;
20743;SDS011;56303;52.160;-0.428;2023-01-01T04:58:18;13.27;;;3.53;;
20743;SDS011;56303;52.160;-0.428;2023-01-01T05:00:48;17.17;;;4.20;;
20743;SDS011;56303;52.160;-0.428;2023-01-01T05:03:16;20.70;;;5.87;;
20743;SDS011;56303;52.160;-0.428;2023-01-01T05:05:43;16.90;;;4.20;;
20743;SDS011;56303;52.160;-0.428;2023-01-01T05:08:16;16.07;;;4.67;;
20743;SDS011;56303;52.160;-0.428;2023-01-01T05:10:43;17.67;;;5.53;;
20743;SDS011;56303;52.160;-0.428;2023-01-01T05:13:09;15.70;;;3.87;;
20743;SDS011;56303;52.160;-0.428;2023-01-01T05:15:37;15.13;;;4.30;;
20743;SDS011;56303;52.160;-0.428;2023-01-01T05:18:04;19.20;;;4.23;;
20743;SDS011;56303;52.160;-0.428;2023-01-01T05:20:31;17.80;;;4.60;;
20743;SDS011;56303;52.160;-0.428;2023-01-01T05:22:58;19.53;;;4.57;;
20743;SDS011;56303;52.160;-0.428;2023-01-01T05:25:24;12.87;;;3.47;;
20743;SDS011;56303;52.160;-0.428;2023-01-01T05:27:52;12.57;;;3.43;;
20743;SDS011;56303;52.160;-0.428;2023-01-01T05:30:19;15.80;;;3.73;;
20743;SDS011;56303;52.160;-0.428;2023-01-01T05:32:45;13.67;;;3.43;;
20743;SDS011;56303;52.160;-0.428;2023-01-01T05:35:12;16.50;;;4.10;;
20743;SDS011;56303;52.160;-0.428;2023-01-01T05:37:39;15.30;;;4.13;;
20743;SDS011;56303;52.160;-0.428;2023-01-01T05:40:06;14.90;;;3.70;;
20743;SDS011;56303;52.160;-0.428;2023-01-01T05:42:33;12.90;;;4.27;;
20743;SDS011;56303;52.160;-0.428;2023-01-01T05:45:01;15.83;;;4.50;;
20743;SDS011;56303;52.160;-0.428;2023-01-01T05:47:28;16.43;;;4.60;;
20743;SDS011;56303;52.160;-0.428;2023-01-01T05:49:55;17.77;;;4.17;;
20743;SDS011;56303;52.160;-0.428;2023-01-01T05:52:22;11.60;;;4.33;;
20743;SDS011;56303;52.160;-0.428;2023-01-01T05:54:52;19.33;;;4.80;;
20743;SDS011;56303;52.160;-0.428;2023-01-01T05:57:19;13.17;;;5.20;;
20743;SDS011;56303;52.160;-0.428;2023-01-01T05:59:45;15.63;;;4.10;;
20743;SDS011;56303;52.160;-0.428;2023-01-01T06:02:12;17.93;;;3.77;;
20743;SDS011;56303;52.160;-0.428;2023-01-01T06:04:39;17.33;;;5.27;;
20743;SDS011;56303;52.160;-0.428;2023-01-01T06:07:06;11.47;;;5.07;;
20743;SDS011;56303;52.160;-0.428;2023-01-01T06:09:33;11.90;;;2.93;;
20743;SDS011;56303;52.160;-0.428;2023-01-01T06:11:59;14.83;;;4.70;;
20743;SDS011;56303;52.160;-0.428;2023-01-01T06:14:26;17.57;;;3.90;;
20743;SDS011;56303;52.160;-0.428;2023-01-01T06:16:53;15.43;;;3.53;;
20743;SDS011;56303;52.160;-0.428;2023-01-01T06:19:20;13.87;;;2.93;;
20743;SDS011;56303;52.160;-0.428;2023-01-01T06:21:47;15.00;;;3.70;;
20743;SDS011;56303;52.160;-0.428;2023-01-01T06:24:14;11.47;;;3.27;;
20743;SDS011;56303;52.160;-0.428;2023-01-01T06:26:41;8.77;;;2.93;;
20743;SDS011;56303;52.160;-0.428;2023-01-01T06:29:08;13.73;;;3.17;;
20743;SDS011;56303;52.160;-0.428;2023-01-01T06:31:35;12.47;;;2.70;;
20743;SDS011;56303;52.160;-0.428;2023-01-01T06:34:06;13.57;;;2.77;;
20743;SDS011;56303;52.160;-0.428;2023-01-01T06:36:33;11.57;;;3.17;;
20743;SDS011;56303;52.160;-0.428;2023-01-01T06:39:00;9.13;;;2.70;;
20743;SDS011;56303;52.160;-0.428;2023-01-01T06:41:28;8.30;;;2.23;;
20743;SDS011;56303;52.160;-0.428;2023-01-01T06:43:56;9.10;;;2.87;;
20743;SDS011;56303;52.160;-0.428;2023-01-01T06:46:28;7.33;;;2.50;;
20743;SDS011;56303;52.160;-0.428;2023-01-01T06:48:57;12.73;;;2.50;;
20743;SDS011;56303;52.160;-0.428;2023-01-01T06:51:26;8.70;;;2.83;;
20743;SDS011;56303;52.160;-0.428;2023-01-01T06:53:58;8.60;;;2.40;;
20743;SDS011;56303;52.160;-0.428;2023-01-01T06:56:26;9.93;;;2.83;;
20743;SDS011;56303;52.160;-0.428;2023-01-01T06:58:54;8.60;;;2.50;;
20743;SDS011;56303;52.160;-0.428;2023-01-01T07:01:22;6.93;;;2.40;;
20743;SDS011;56303;52.160;-0.428;2023-01-01T07:03:52;9.67;;;2.73;;
20743;SDS011;56303;52.160;-0.428;2023-01-01T07:06:20;10.07;;;2.63;;
20743;SDS011;56303;52.160;-0.428;2023-01-01T07:08:47;11.47;;;2.77;;
20743;SDS011;56303;52.160;-0.428;2023-01-01T07:11:14;10.47;;;2.87;;
20743;SDS011;56303;52.160;-0.428;2023-01-01T07:13:41;7.43;;;2.20;;
20743;SDS011;56303;52.160;-0.428;2023-01-01T07:16:08;6.70;;;2.67;;
20743;SDS011;56303;52.160;-0.428;2023-01-01T07:18:39;6.63;;;2.40;;
20743;SDS011;56303;52.160;-0.428;2023-01-01T07:21:19;6.77;;;2.77;;
20743;SDS011;56303;52.160;-0.428;2023-01-01T07:23:55;8.40;;;2.80;;
20743;SDS011;56303;52.160;-0.428;2023-01-01T07:26:27;13.43;;;3.30;;
20743;SDS011;56303;52.160;-0.428;2023-01-01T07:28:55;13.90;;;3.03;;
20743;SDS011;56303;52.160;-0.428;2023-01-01T07:31:31;10.33;;;3.27;;
20743;SDS011;56303;52.160;-0.428;2023-01-01T07:33:58;8.37;;;3.13;;
20743;SDS011;56303;52.160;-0.428;2023-01-01T07:36:25;13.97;;;4.20;;
20743;SDS011;56303;52.160;-0.428;2023-01-01T07:38:51;12.20;;;3.10;;
20743;SDS011;56303;52.160;-0.428;2023-01-01T07:41:18;11.93;;;4.00;;
20743;SDS011;56303;52.160;-0.428;2023-01-01T07:43:45;12.67;;;2.63;;
20743;SDS011;56303;52.160;-0.428;2023-01-01T07:46:12;8.93;;;2.93;;
20743;SDS011;56303;52.160;-0.428;2023-01-01T07:48:41;6.47;;;2.17;;
20743;SDS011;56303;52.160;-0.428;2023-01-01T07:51:08;7.97;;;2.50;;
20743;SDS011;56303;52.160;-0.428;2023-01-01T07:53:35;10.60;;;3.60;;
20743;SDS011;56303;52.160;-0.428;2023-01-01T07:56:01;11.00;;;3.77;;
20743;SDS011;56303;52.160;-0.428;2023-01-01T07:58:28;11.30;;;3.03;;
20743;SDS011;56303;52.160;-0.428;2023-01-01T08:00:55;13.60;;;3.30;;
20743;SDS011;56303;52.160;-0.428;2023-01-01T08:03:22;16.37;;;3.87;;
20743;SDS011;56303;52.160;-0.428;2023-01-01T08:05:49;17.33;;;4.10;;
20743;SDS011;56303;52.160;-0.428;2023-01-01T08:08:16;15.53;;;3.73;;
20743;SDS011;56303;52.160;-0.428;2023-01-01T08:10:42;11.77;;;4.07;;
20743;SDS011;56303;52.160;-0.428;2023-01-01T08:13:09;12.10;;;4.03;;
20743;SDS011;56303;52.160;-0.428;2023-01-01T08:15:36;15.10;;;3.53;;
20743;SDS011;56303;52.160;-0.428;2023-01-01T08:18:03;16.83;;;4.47;;
20743;SDS011;56303;52.160;-0.428;2023-01-01T08:20:31;12.70;;;3.93;;
20743;SDS011;56303;52.160;-0.428;2023-01-01T08:22:58;13.60;;;4.03;;
20743;SDS011;56303;52.160;-0.428;2023-01-01T08:25:32;12.43;;;3.80;;
20743;SDS011;56303;52.160;-0.428;2023-01-01T08:27:59;17.97;;;4.93;;
20743;SDS011;56303;52.160;-0.428;2023-01-01T08:30:26;12.83;;;3.77;;
20743;SDS011;56303;52.160;-0.428;2023-01-01T08:32:54;12.30;;;3.43;;
20743;SDS011;56303;52.160;-0.428;2023-01-01T08:35:21;16.07;;;3.40;;
20743;SDS011;56303;52.160;-0.428;2023-01-01T08:37:48;16.53;;;3.73;;
20743;SDS011;56303;52.160;-0.428;2023-01-01T08:40:14;11.93;;;3.47;;
20743;SDS011;56303;52.160;-0.428;2023-01-01T08:42:41;13.23;;;3.27;;
20743;SDS011;56303;52.160;-0.428;2023-01-01T08:45:08;12.40;;;3.47;;
20743;SDS011;56303;52.160;-0.428;2023-01-01T08:47:35;18.87;;;4.77;;
20743;SDS011;56303;52.160;-0.428;2023-01-01T08:50:02;12.13;;;4.00;;
20743;SDS011;56303;52.160;-0.428;2023-01-01T08:52:30;14.90;;;3.80;;
20743;SDS011;56303;52.160;-0.428;2023-01-01T08:54:57;14.40;;;3.23;;
20743;SDS011;56303;52.160;-0.428;2023-01-01T08:57:24;10.53;;;2.87;;
20743;SDS011;56303;52.160;-0.428;2023-01-01T08:59:51;10.13;;;3.40;;
20743;SDS011;56303;52.160;-0.428;2023-01-01T09:02:17;11.73;;;3.60;;
20743;SDS011;56303;52.160;-0.428;2023-01-01T09:04:44;8.80;;;2.47;;
20743;SDS011;56303;52.160;-0.428;2023-01-01T09:07:11;12.50;;;3.43;;
20743;SDS011;56303;52.160;-0.428;2023-01-01T09:09:38;11.77;;;3.00;;
20743;SDS011;56303;52.160;-0.428;2023-01-01T09:12:05;8.13;;;2.13;;
20743;SDS011;56303;52.160;-0.428;2023-01-01T09:14:34;9.87;;;2.60;;
20743;SDS011;56303;52.160;-0.428;2023-01-01T09:17:01;8.27;;;2.50;;
20743;SDS011;56303;52.160;-0.428;2023-01-01T09:19:28;10.13;;;2.87;;
20743;SDS011;56303;52.160;-0.428;2023-01-01T09:21:56;7.43;;;2.60;;
20743;SDS011;56303;52.160;-0.428;2023-01-01T09:24:23;12.20;;;2.47;;
20743;SDS011;56303;52.160;-0.428;2023-01-01T09:26:50;8.87;;;3.13;;
20743;SDS011;56303;52.160;-0.428;2023-01-01T09:29:16;9.37;;;2.87;;
20743;SDS011;56303;52.160;-0.428;2023-01-01T09:31:47;8.10;;;2.70;;
20743;SDS011;56303;52.160;-0.428;2023-01-01T09:34:14;7.10;;;2.30;;
20743;SDS011;56303;52.160;-0.428;2023-01-01T09:36:43;9.43;;;2.70;;
20743;SDS011;56303;52.160;-0.428;2023-01-01T09:39:11;7.10;;;2.50;;
20743;SDS011;56303;52.160;-0.428;2023-01-01T09:41:45;10.70;;;3.00;;
20743;SDS011;56303;52.160;-0.428;2023-01-01T09:47:01;6.97;;;2.60;;
20743;SDS011;56303;52.160;-0.428;2023-01-01T09:49:33;10.67;;;2.40;;
20743;SDS011;56303;52.160;-0.428;2023-01-01T09:52:08;11.53;;;2.70;;
20743;SDS011;56303;52.160;-0.428;2023-01-01T09:57:09;10.00;;;3.33;;
20743;SDS011;56303;52.160;-0.428;2023-01-01T09:59:45;11.53;;;3.07;;
20743;SDS011;56303;52.160;-0.428;2023-01-01T10:05:28;9.33;;;3.13;;
20743;SDS011;56303;52.160;-0.428;2023-01-01T10:08:16;11.17;;;2.97;;
20743;SDS011;56303;52.160;-0.428;2023-01-01T10:10:55;10.00;;;3.20;;
20743;SDS011;56303;52.160;-0.428;2023-01-01T10:13:43;10.03;;;2.83;;
20743;SDS011;56303;52.160;-0.428;2023-01-01T10:18:51;12.90;;;3.00;;
20743;SDS011;56303;52.160;-0.428;2023-01-01T10:26:23;13.50;;;5.17;;
20743;SDS011;56303;52.160;-0.428;2023-01-01T10:29:05;15.47;;;4.37;;
20743;SDS011;56303;52.160;-0.428;2023-01-01T10:31:40;16.90;;;3.73;;
20743;SDS011;56303;52.160;-0.428;2023-01-01T10:36:42;14.40;;;3.87;;
20743;SDS011;56303;52.160;-0.428;2023-01-01T10:39:13;14.97;;;3.80;;
20743;SDS011;56303;52.160;-0.428;2023-01-01T10:41:41;17.33;;;4.43;;
20743;SDS011;56303;52.160;-0.428;2023-01-01T10:44:13;14.93;;;4.90;;
20743;SDS011;56303;52.160;-0.428;2023-01-01T10:46:44;12.43;;;3.53;;
20743;SDS011;56303;52.160;-0.428;2023-01-01T10:49:14;13.97;;;3.47;;
20743;SDS011;56303;52.160;-0.428;2023-01-01T10:51:45;14.30;;;3.63;;
20743;SDS011;56303;52.160;-0.428;2023-01-01T10:54:30;17.17;;;4.43;;
20743;SDS011;56303;52.160;-0.428;2023-01-01T10:56:59;14.63;;;3.57;;
20743;SDS011;56303;52.160;-0.428;2023-01-01T11:00:09;14.33;;;4.73;;
20743;SDS011;56303;52.160;-0.428;2023-01-01T11:08:31;12.43;;;3.50;;
20743;SDS011;56303;52.160;-0.428;2023-01-01T11:11:01;16.53;;;4.33;;
20743;SDS011;56303;52.160;-0.428;2023-01-01T11:13:28;16.13;;;4.93;;
20743;SDS011;56303;52.160;-0.428;2023-01-01T11:15:57;19.33;;;5.03;;
20743;SDS011;56303;52.160;-0.428;2023-01-01T11:18:26;12.80;;;4.10;;
20743;SDS011;56303;52.160;-0.428;2023-01-01T11:21:02;13.87;;;4.17;;
20743;SDS011;56303;52.160;-0.428;2023-01-01T11:23:37;14.90;;;4.30;;
20743;SDS011;56303;52.160;-0.428;2023-01-01T11:28:38;17.00;;;4.53;;
20743;SDS011;56303;52.160;-0.428;2023-01-01T11:31:11;18.27;;;4.43;;
20743;SDS011;56303;52.160;-0.428;2023-01-01T11:33:47;17.10;;;4.87;;
20743;SDS011;56303;52.160;-0.428;2023-01-01T11:36:37;21.23;;;4.40;;
20743;SDS011;56303;52.160;-0.428;2023-01-01T11:41:49;16.73;;;4.07;;
20743;SDS011;56303;52.160;-0.428;2023-01-01T11:47:37;19.17;;;4.60;;
20743;SDS011;56303;52.160;-0.428;2023-01-01T11:50:17;19.80;;;4.47;;
20743;SDS011;56303;52.160;-0.428;2023-01-01T11:52:51;18.60;;;5.10;;
20743;SDS011;56303;52.160;-0.428;2023-01-01T11:55:26;15.17;;;4.83;;
20743;SDS011;56303;52.160;-0.428;2023-01-01T12:00:44;14.53;;;4.50;;
20743;SDS011;56303;52.160;-0.428;2023-01-01T12:03:16;16.37;;;5.27;;
20743;SDS011;56303;52.160;-0.428;2023-01-01T12:06:05;16.80;;;5.10;;
20743;SDS011;56303;52.160;-0.428;2023-01-01T12:08:38;17.63;;;5.00;;
20743;SDS011;56303;52.160;-0.428;2023-01-01T12:11:45;18.40;;;4.60;;
20743;SDS011;56303;52.160;-0.428;2023-01-01T12:14:24;15.00;;;4.50;;
20743;SDS011;56303;52.160;-0.428;2023-01-01T12:19:42;20.07;;;6.27;;
20743;SDS011;56303;52.160;-0.428;2023-01-01T12:25:37;21.60;;;5.90;;
20743;SDS011;56303;52.160;-0.428;2023-01-01T12:33:37;16.83;;;5.53;;
20743;SDS011;56303;52.160;-0.428;2023-01-01T12:36:23;20.87;;;5.97;;
20743;SDS011;56303;52.160;-0.428;2023-01-01T12:47:22;17.90;;;4.67;;
20743;SDS011;56303;52.160;-0.428;2023-01-01T12:52:45;20.07;;;6.67;;
20743;SDS011;56303;52.160;-0.428;2023-01-01T12:58:20;19.60;;;4.93;;
20743;SDS011;56303;52.160;-0.428;2023-01-01T13:01:09;14.70;;;5.13;;
20743;SDS011;56303;52.160;-0.428;2023-01-01T13:03:51;20.77;;;5.20;;
20743;SDS011;56303;52.160;-0.428;2023-01-01T13:09:06;20.60;;;5.93;;
20743;SDS011;56303;52.160;-0.428;2023-01-01T13:11:39;19.10;;;5.90;;
20743;SDS011;56303;52.160;-0.428;2023-01-01T13:14:11;16.67;;;5.30;;
20743;SDS011;56303;52.160;-0.428;2023-01-01T13:16:39;18.10;;;5.10;;
20743;SDS011;56303;52.160;-0.428;2023-01-01T13:19:51;19.63;;;7.00;;
20743;SDS011;56303;52.160;-0.428;2023-01-01T13:41:38;21.37;;;5.30;;
20743;SDS011;56303;52.160;-0.428;2023-01-01T13:44:18;18.13;;;4.87;;
20743;SDS011;56303;52.160;-0.428;2023-01-01T13:50:04;18.47;;;5.00;;
20743;SDS011;56303;52.160;-0.428;2023-01-01T14:04:55;19.93;;;5.70;;
20743;SDS011;56303;52.160;-0.428;2023-01-01T14:12:42;13.77;;;4.70;;
20743;SDS011;56303;52.160;-0.428;2023-01-01T14:15:14;23.30;;;5.90;;
20743;SDS011;56303;52.160;-0.428;2023-01-01T14:18:03;16.47;;;5.00;;
20743;SDS011;56303;52.160;-0.428;2023-01-01T14:20:42;24.67;;;5.73;;
20743;SDS011;56303;52.160;-0.428;2023-01-01T14:23:33;23.57;;;5.50;;
20743;SDS011;56303;52.160;-0.428;2023-01-01T14:26:08;17.87;;;4.97;;
20743;SDS011;56303;52.160;-0.428;2023-01-01T14:28:38;17.37;;;5.10;;
20743;SDS011;56303;52.160;-0.428;2023-01-01T14:31:18;18.30;;;5.17;;
20743;SDS011;56303;52.160;-0.428;2023-01-01T14:33:47;16.27;;;5.73;;
20743;SDS011;56303;52.160;-0.428;2023-01-01T14:36:27;21.90;;;6.47;;
20743;SDS011;56303;52.160;-0.428;2023-01-01T14:38:56;22.53;;;7.37;;
20743;SDS011;56303;52.160;-0.428;2023-01-01T14:41:30;19.77;;;5.43;;
20743;SDS011;56303;52.160;-0.428;2023-01-01T14:44:23;23.13;;;5.43;;
20743;SDS011;56303;52.160;-0.428;2023-01-01T14:46:52;22.33;;;5.67;;
20743;SDS011;56303;52.160;-0.428;2023-01-01T14:49:21;16.83;;;5.30;;
20743;SDS011;56303;52.160;-0.428;2023-01-01T14:52:00;20.50;;;4.87;;
20743;SDS011;56303;52.160;-0.428;2023-01-01T14:54:43;20.13;;;5.97;;
20743;SDS011;56303;52.160;-0.428;2023-01-01T14:57:15;22.90;;;5.87;;
20743;SDS011;56303;52.160;-0.428;2023-01-01T14:59:46;18.47;;;5.40;;
20743;SDS011;56303;52.160;-0.428;2023-01-01T15:02:15;22.40;;;5.43;;
20743;SDS011;56303;52.160;-0.428;2023-01-01T15:04:46;21.60;;;6.03;;
20743;SDS011;56303;52.160;-0.428;2023-01-01T15:07:20;19.87;;;5.37;;
20743;SDS011;56303;52.160;-0.428;2023-01-01T15:09:50;19.90;;;4.93;;
20743;SDS011;56303;52.160;-0.428;2023-01-01T15:12:19;22.43;;;5.93;;
20743;SDS011;56303;52.160;-0.428;2023-01-01T15:14:48;21.10;;;5.60;;
20743;SDS011;56303;52.160;-0.428;2023-01-01T15:17:17;17.00;;;5.27;;
20743;SDS011;56303;52.160;-0.428;2023-01-01T15:19:58;18.00;;;5.90;;
20743;SDS011;56303;52.160;-0.428;2023-01-01T15:22:45;16.20;;;5.43;;
20743;SDS011;56303;52.160;-0.428;2023-01-01T15:25:13;23.10;;;6.30;;
20743;SDS011;56303;52.160;-0.428;2023-01-01T15:27:46;23.13;;;6.67;;
20743;SDS011;56303;52.160;-0.428;2023-01-01T15:32:50;27.23;;;6.13;;
20743;SDS011;56303;52.160;-0.428;2023-01-01T15:35:27;28.93;;;6.80;;
20743;SDS011;56303;52.160;-0.428;2023-01-01T15:38:19;19.60;;;5.73;;
20743;SDS011;56303;52.160;-0.428;2023-01-01T15:40:47;29.30;;;7.30;;
20743;SDS011;56303;52.160;-0.428;2023-01-01T15:45:50;19.57;;;5.87;;
20743;SDS011;56303;52.160;-0.428;2023-01-01T15:48:20;23.77;;;6.47;;
20743;SDS011;56303;52.160;-0.428;2023-01-01T15:51:00;25.60;;;5.73;;
20743;SDS011;56303;52.160;-0.428;2023-01-01T15:53:39;14.87;;;5.13;;
20743;SDS011;56303;52.160;-0.428;2023-01-01T15:56:13;25.47;;;6.37;;
20743;SDS011;56303;52.160;-0.428;2023-01-01T15:58:42;20.43;;;5.40;;
20743;SDS011;56303;52.160;-0.428;2023-01-01T16:01:18;14.37;;;5.13;;
20743;SDS011;56303;52.160;-0.428;2023-01-01T16:03:47;26.17;;;5.63;;
20743;SDS011;56303;52.160;-0.428;2023-01-01T16:06:18;20.43;;;6.20;;
20743;SDS011;56303;52.160;-0.428;2023-01-01T16:08:46;21.77;;;8.00;;
20743;SDS011;56303;52.160;-0.428;2023-01-01T16:11:13;19.30;;;6.27;;
20743;SDS011;56303;52.160;-0.428;2023-01-01T16:13:40;21.63;;;5.23;;
20743;SDS011;56303;52.160;-0.428;2023-01-01T16:19:16;25.13;;;6.23;;
20743;SDS011;56303;52.160;-0.428;2023-01-01T16:21:44;21.93;;;6.43;;
20743;SDS011;56303;52.160;-0.428;2023-01-01T16:24:15;20.43;;;5.47;;
20743;SDS011;56303;52.160;-0.428;2023-01-01T16:26:52;23.97;;;6.67;;
20743;SDS011;56303;52.160;-0.428;2023-01-01T16:29:19;21.20;;;5.70;;
20743;SDS011;56303;52.160;-0.428;2023-01-01T16:31:46;22.53;;;6.53;;
20743;SDS011;56303;52.160;-0.428;2023-01-01T16:34:15;24.73;;;5.60;;
20743;SDS011;56303;52.160;-0.428;2023-01-01T16:36:42;18.80;;;5.83;;
20743;SDS011;56303;52.160;-0.428;2023-01-01T16:39:10;19.57;;;6.83;;
20743;SDS011;56303;52.160;-0.428;2023-01-01T16:41:41;19.67;;;6.97;;
20743;SDS011;56303;52.160;-0.428;2023-01-01T16:44:12;19.20;;;5.63;;
20743;SDS011;56303;52.160;-0.428;2023-01-01T16:46:40;18.70;;;5.33;;
20743;SDS011;56303;52.160;-0.428;2023-01-01T16:49:07;19.93;;;5.23;;
20743;SDS011;56303;52.160;-0.428;2023-01-01T16:51:34;23.47;;;6.40;;
20743;SDS011;56303;52.160;-0.428;2023-01-01T16:54:08;21.83;;;6.87;;
20743;SDS011;56303;52.160;-0.428;2023-01-01T16:56:35;21.23;;;6.73;;
20743;SDS011;56303;52.160;-0.428;2023-01-01T16:59:02;17.90;;;5.20;;
20743;SDS011;56303;52.160;-0.428;2023-01-01T17:01:29;27.50;;;6.80;;
20743;SDS011;56303;52.160;-0.428;2023-01-01T17:03:57;29.50;;;6.13;;
20743;SDS011;56303;52.160;-0.428;2023-01-01T17:06:24;21.87;;;6.60;;
20743;SDS011;56303;52.160;-0.428;2023-01-01T17:08:51;19.87;;;5.97;;
20743;SDS011;56303;52.160;-0.428;2023-01-01T17:11:18;22.97;;;6.10;;
20743;SDS011;56303;52.160;-0.428;2023-01-01T17:13:46;19.07;;;5.77;;
20743;SDS011;56303;52.160;-0.428;2023-01-01T17:16:14;16.23;;;5.20;;